sensor_id;sensor_type;location;lat;lon;timestamp;temperature;humidity
17215;DHT22;8723;51.502;6.918;2023-03-24T14:19:36;13.10;99.90
17215;DHT22;8723;51.502;6.918;2023-03-24T14:22:12;13.10;1.00
17215;DHT22;8723;51.502;6.918;2023-03-24T14:24:40;12.70;1.00
17215;DHT22;8723;51.502;6.918;2023-03-24T14:27:34;12.40;1.00
17215;DHT22;8723;51.502;6.918;2023-03-24T14:30:10;12.20;99.90
17215;DHT22;8723;51.502;6.918;2023-03-24T14:32:43;12.30;1.00
17215;DHT22;8723;51.502;6.918;2023-03-24T14:35:25;12.40;1.00
17215;DHT22;8723;51.502;6.918;2023-03-24T14:37:58;12.40;1.00
17215;DHT22;8723;51.502;6.918;2023-03-24T14:40:28;12.40;1.00
17215;DHT22;8723;51.502;6.918;2023-03-24T14:43:11;12.40;1.00
17215;DHT22;8723;51.502;6.918;2023-03-24T14:45:58;12.50;1.00
17215;DHT22;8723;51.502;6.918;2023-03-24T14:48:34;12.50;99.90
17215;DHT22;8723;51.502;6.918;2023-03-24T14:51:11;12.50;99.90
17215;DHT22;8723;51.502;6.918;2023-03-24T14:53:42;12.50;99.90
17215;DHT22;8723;51.502;6.918;2023-03-24T14:56:13;12.50;99.90
17215;DHT22;8723;51.502;6.918;2023-03-24T14:58:44;12.50;1.00
17215;DHT22;8723;51.502;6.918;2023-03-24T15:01:14;12.60;99.90
17215;DHT22;8723;51.502;6.918;2023-03-24T15:03:46;12.50;1.00
17215;DHT22;8723;51.502;6.918;2023-03-24T15:06:16;12.50;1.00
17215;DHT22;8723;51.502;6.918;2023-03-24T15:08:47;12.40;1.00
17215;DHT22;8723;51.502;6.918;2023-03-24T15:11:16;12.30;1.00
17215;DHT22;8723;51.502;6.918;2023-03-24T15:13:46;12.30;1.00
17215;DHT22;8723;51.502;6.918;2023-03-24T15:16:20;12.40;1.00
17215;DHT22;8723;51.502;6.918;2023-03-24T15:18:50;12.40;1.00
17215;DHT22;8723;51.502;6.918;2023-03-24T15:21:23;12.40;99.90
17215;DHT22;8723;51.502;6.918;2023-03-24T15:23:50;12.40;99.90
17215;DHT22;8723;51.502;6.918;2023-03-24T15:26:19;12.40;99.90
17215;DHT22;8723;51.502;6.918;2023-03-24T15:28:53;12.50;1.00
17215;DHT22;8723;51.502;6.918;2023-03-24T15:31:21;12.50;99.90
17215;DHT22;8723;51.502;6.918;2023-03-24T15:33:50;12.40;1.00
17215;DHT22;8723;51.502;6.918;2023-03-24T15:36:20;12.50;1.00
17215;DHT22;8723;51.502;6.918;2023-03-24T15:38:49;12.40;99.90
17215;DHT22;8723;51.502;6.918;2023-03-24T15:41:18;12.40;57.10
17215;DHT22;8723;51.502;6.918;2023-03-24T15:43:49;12.40;99.90
17215;DHT22;8723;51.502;6.918;2023-03-24T15:46:23;12.40;99.90
17215;DHT22;8723;51.502;6.918;2023-03-24T15:48:51;12.40;99.90
17215;DHT22;8723;51.502;6.918;2023-03-24T15:51:20;12.30;56.30
17215;DHT22;8723;51.502;6.918;2023-03-24T15:54:21;12.30;1.00
17215;DHT22;8723;51.502;6.918;2023-03-24T15:57:08;12.00;1.00
17215;DHT22;8723;51.502;6.918;2023-03-24T15:59:40;11.70;1.00
17215;DHT22;8723;51.502;6.918;2023-03-24T16:02:16;11.70;1.00
17215;DHT22;8723;51.502;6.918;2023-03-24T16:04:47;11.60;52.50
17215;DHT22;8723;51.502;6.918;2023-03-24T16:07:21;11.60;99.90
17215;DHT22;8723;51.502;6.918;2023-03-24T16:09:55;11.50;1.00
17215;DHT22;8723;51.502;6.918;2023-03-24T16:12:23;11.50;99.90
17215;DHT22;8723;51.502;6.918;2023-03-24T16:14:50;11.50;4.00
17215;DHT22;8723;51.502;6.918;2023-03-24T16:17:18;11.50;99.90
17215;DHT22;8723;51.502;6.918;2023-03-24T16:19:45;11.50;99.90
17215;DHT22;8723;51.502;6.918;2023-03-24T16:22:12;11.50;99.90
17215;DHT22;8723;51.502;6.918;2023-03-24T16:24:39;11.40;1.00
17215;DHT22;8723;51.502;6.918;2023-03-24T16:27:06;11.40;1.00
17215;DHT22;8723;51.502;6.918;2023-03-24T16:29:32;11.40;1.00
17215;DHT22;8723;51.502;6.918;2023-03-24T16:32:01;11.40;1.00
17215;DHT22;8723;51.502;6.918;2023-03-24T16:34:29;11.50;99.90
17215;DHT22;8723;51.502;6.918;2023-03-24T16:36:56;11.50;1.00
17215;DHT22;8723;51.502;6.918;2023-03-24T16:39:25;11.50;93.10
17215;DHT22;8723;51.502;6.918;2023-03-24T16:41:52;11.50;14.00
17215;DHT22;8723;51.502;6.918;2023-03-24T16:44:20;11.60;10.70
17215;DHT22;8723;51.502;6.918;2023-03-24T16:46:49;11.60;99.90
17215;DHT22;8723;51.502;6.918;2023-03-24T16:49:18;11.60;99.90
17215;DHT22;8723;51.502;6.918;2023-03-24T16:51:46;11.50;1.00
17215;DHT22;8723;51.502;6.918;2023-03-24T16:54:13;11.50;1.00
17215;DHT22;8723;51.502;6.918;2023-03-24T16:56:40;11.40;47.50
17215;DHT22;8723;51.502;6.918;2023-03-24T16:59:07;11.40;1.00
17215;DHT22;8723;51.502;6.918;2023-03-24T17:01:38;11.30;1.00
17215;DHT22;8723;51.502;6.918;2023-03-24T17:04:06;11.30;1.00
17215;DHT22;8723;51.502;6.918;2023-03-24T17:06:37;11.30;1.00
17215;DHT22;8723;51.502;6.918;2023-03-24T17:09:06;11.20;78.10
17215;DHT22;8723;51.502;6.918;2023-03-24T17:11:35;11.20;99.90
17215;DHT22;8723;51.502;6.918;2023-03-24T17:14:04;11.20;1.00
17215;DHT22;8723;51.502;6.918;2023-03-24T17:16:34;11.20;1.00
17215;DHT22;8723;51.502;6.918;2023-03-24T17:19:02;11.10;1.00
17215;DHT22;8723;51.502;6.918;2023-03-24T17:21:29;11.00;1.00
17215;DHT22;8723;51.502;6.918;2023-03-24T17:23:57;10.90;94.40
17215;DHT22;8723;51.502;6.918;2023-03-24T17:26:26;10.90;99.90
17215;DHT22;8723;51.502;6.918;2023-03-24T17:28:52;10.90;1.00
17215;DHT22;8723;51.502;6.918;2023-03-24T17:31:19;10.90;99.90
17215;DHT22;8723;51.502;6.918;2023-03-24T17:33:46;10.80;1.00
17215;DHT22;8723;51.502;6.918;2023-03-24T17:36:15;10.80;1.00
17215;DHT22;8723;51.502;6.918;2023-03-24T17:38:42;10.80;1.00
17215;DHT22;8723;51.502;6.918;2023-03-24T17:41:11;10.70;1.00
17215;DHT22;8723;51.502;6.918;2023-03-24T17:43:39;10.70;1.00
17215;DHT22;8723;51.502;6.918;2023-03-24T17:46:06;10.70;1.00
17215;DHT22;8723;51.502;6.918;2023-03-24T17:48:33;10.70;1.00
17215;DHT22;8723;51.502;6.918;2023-03-24T17:51:00;10.70;1.00
17215;DHT22;8723;51.502;6.918;2023-03-24T17:53:27;10.60;1.00
17215;DHT22;8723;51.502;6.918;2023-03-24T17:55:57;10.60;1.00
17215;DHT22;8723;51.502;6.918;2023-03-24T17:58:24;10.60;1.00
17215;DHT22;8723;51.502;6.918;2023-03-24T18:00:53;10.60;1.00
17215;DHT22;8723;51.502;6.918;2023-03-24T18:03:22;10.60;1.00
17215;DHT22;8723;51.502;6.918;2023-03-24T18:05:51;10.60;1.00
17215;DHT22;8723;51.502;6.918;2023-03-24T18:08:18;10.50;1.00
17215;DHT22;8723;51.502;6.918;2023-03-24T18:10:44;10.60;1.00
17215;DHT22;8723;51.502;6.918;2023-03-24T18:13:11;10.50;1.00
17215;DHT22;8723;51.502;6.918;2023-03-24T18:15:40;10.50;1.00
17215;DHT22;8723;51.502;6.918;2023-03-24T18:18:09;10.50;1.00
17215;DHT22;8723;51.502;6.918;2023-03-24T18:20:35;10.50;1.00
17215;DHT22;8723;51.502;6.918;2023-03-24T18:23:03;10.50;1.00
17215;DHT22;8723;51.502;6.918;2023-03-24T18:25:31;10.50;1.00
17215;DHT22;8723;51.502;6.918;2023-03-24T18:27:58;10.50;1.00
17215;DHT22;8723;51.502;6.918;2023-03-24T18:30:25;10.50;1.00
17215;DHT22;8723;51.502;6.918;2023-03-24T18:32:51;10.50;1.00
17215;DHT22;8723;51.502;6.918;2023-03-24T18:35:19;10.40;1.00
17215;DHT22;8723;51.502;6.918;2023-03-24T18:37:46;10.40;1.00
17215;DHT22;8723;51.502;6.918;2023-03-24T18:40:13;10.40;1.00
17215;DHT22;8723;51.502;6.918;2023-03-24T18:42:40;10.40;1.00
17215;DHT22;8723;51.502;6.918;2023-03-24T18:45:08;10.40;1.00
17215;DHT22;8723;51.502;6.918;2023-03-24T18:47:41;10.40;1.00
17215;DHT22;8723;51.502;6.918;2023-03-24T18:50:09;10.30;1.00
17215;DHT22;8723;51.502;6.918;2023-03-24T18:52:37;10.30;1.00
17215;DHT22;8723;51.502;6.918;2023-03-24T18:55:05;10.30;1.00
17215;DHT22;8723;51.502;6.918;2023-03-24T18:57:32;10.30;1.00
17215;DHT22;8723;51.502;6.918;2023-03-24T18:59:59;10.30;1.00
17215;DHT22;8723;51.502;6.918;2023-03-24T19:02:26;10.30;1.00
17215;DHT22;8723;51.502;6.918;2023-03-24T19:04:52;10.40;1.00
17215;DHT22;8723;51.502;6.918;2023-03-24T19:07:19;10.40;1.00
17215;DHT22;8723;51.502;6.918;2023-03-24T19:09:53;10.40;1.00
17215;DHT22;8723;51.502;6.918;2023-03-24T19:12:21;10.40;1.00
17215;DHT22;8723;51.502;6.918;2023-03-24T19:14:47;10.40;1.00
17215;DHT22;8723;51.502;6.918;2023-03-24T19:17:15;10.40;1.00
17215;DHT22;8723;51.502;6.918;2023-03-24T19:19:41;10.40;1.00
17215;DHT22;8723;51.502;6.918;2023-03-24T19:22:08;10.40;1.00
17215;DHT22;8723;51.502;6.918;2023-03-24T19:24:35;10.50;1.00
17215;DHT22;8723;51.502;6.918;2023-03-24T19:27:03;10.50;1.00
17215;DHT22;8723;51.502;6.918;2023-03-24T19:29:31;10.50;1.00
17215;DHT22;8723;51.502;6.918;2023-03-24T19:31:58;10.50;1.00
17215;DHT22;8723;51.502;6.918;2023-03-24T19:34:25;10.50;1.00
17215;DHT22;8723;51.502;6.918;2023-03-24T19:36:52;10.50;1.00
17215;DHT22;8723;51.502;6.918;2023-03-24T19:39:20;10.50;7.60
17215;DHT22;8723;51.502;6.918;2023-03-24T19:41:50;10.50;1.00
17215;DHT22;8723;51.502;6.918;2023-03-24T19:44:18;10.50;1.00
17215;DHT22;8723;51.502;6.918;2023-03-24T19:46:46;10.50;1.00
17215;DHT22;8723;51.502;6.918;2023-03-24T19:49:13;10.50;1.00
17215;DHT22;8723;51.502;6.918;2023-03-24T19:51:40;10.60;1.00
17215;DHT22;8723;51.502;6.918;2023-03-24T19:54:07;10.60;1.00
17215;DHT22;8723;51.502;6.918;2023-03-24T19:56:34;10.70;1.00
17215;DHT22;8723;51.502;6.918;2023-03-24T19:59:01;10.70;1.00
17215;DHT22;8723;51.502;6.918;2023-03-24T20:01:29;10.60;1.00
17215;DHT22;8723;51.502;6.918;2023-03-24T20:03:59;10.60;1.00
17215;DHT22;8723;51.502;6.918;2023-03-24T20:06:26;10.50;72.30
17215;DHT22;8723;51.502;6.918;2023-03-24T20:08:53;10.50;44.20
17215;DHT22;8723;51.502;6.918;2023-03-24T20:11:19;10.50;25.10
17215;DHT22;8723;51.502;6.918;2023-03-24T20:13:46;10.40;42.00
17215;DHT22;8723;51.502;6.918;2023-03-24T20:16:13;10.40;99.90
17215;DHT22;8723;51.502;6.918;2023-03-24T20:18:41;10.30;99.90
17215;DHT22;8723;51.502;6.918;2023-03-24T20:21:09;10.30;99.90
17215;DHT22;8723;51.502;6.918;2023-03-24T20:23:36;10.30;15.80
17215;DHT22;8723;51.502;6.918;2023-03-24T20:26:03;10.30;55.40
17215;DHT22;8723;51.502;6.918;2023-03-24T20:28:30;10.30;1.00
17215;DHT22;8723;51.502;6.918;2023-03-24T20:30:58;10.30;1.00
17215;DHT22;8723;51.502;6.918;2023-03-24T20:33:25;10.30;1.00
17215;DHT22;8723;51.502;6.918;2023-03-24T20:35:55;10.40;1.00
17215;DHT22;8723;51.502;6.918;2023-03-24T20:38:22;10.40;1.00
17215;DHT22;8723;51.502;6.918;2023-03-24T20:40:56;10.40;1.00
17215;DHT22;8723;51.502;6.918;2023-03-24T20:43:24;10.40;1.00
17215;DHT22;8723;51.502;6.918;2023-03-24T20:45:53;10.30;1.00
17215;DHT22;8723;51.502;6.918;2023-03-24T20:48:20;10.30;1.00
17215;DHT22;8723;51.502;6.918;2023-03-24T20:50:47;10.30;1.00
17215;DHT22;8723;51.502;6.918;2023-03-24T20:53:15;10.30;99.90
17215;DHT22;8723;51.502;6.918;2023-03-24T20:55:42;10.20;1.00
17215;DHT22;8723;51.502;6.918;2023-03-24T20:58:13;10.20;1.00
17215;DHT22;8723;51.502;6.918;2023-03-24T21:00:40;10.20;1.00
17215;DHT22;8723;51.502;6.918;2023-03-24T21:03:10;10.20;99.90
17215;DHT22;8723;51.502;6.918;2023-03-24T21:05:37;10.20;1.00
17215;DHT22;8723;51.502;6.918;2023-03-24T21:08:04;10.10;1.00
17215;DHT22;8723;51.502;6.918;2023-03-24T21:10:34;10.20;1.00
17215;DHT22;8723;51.502;6.918;2023-03-24T21:13:02;10.10;1.00
17215;DHT22;8723;51.502;6.918;2023-03-24T21:15:29;10.10;1.00
17215;DHT22;8723;51.502;6.918;2023-03-24T21:17:56;10.10;1.00
17215;DHT22;8723;51.502;6.918;2023-03-24T21:20:23;10.10;1.00
17215;DHT22;8723;51.502;6.918;2023-03-24T21:22:52;10.10;1.00
17215;DHT22;8723;51.502;6.918;2023-03-24T21:25:19;10.10;1.00
17215;DHT22;8723;51.502;6.918;2023-03-24T21:27:48;10.10;1.00
17215;DHT22;8723;51.502;6.918;2023-03-24T21:30:15;10.10;1.00
17215;DHT22;8723;51.502;6.918;2023-03-24T21:32:44;10.00;1.00
17215;DHT22;8723;51.502;6.918;2023-03-24T21:35:11;10.10;1.00
17215;DHT22;8723;51.502;6.918;2023-03-24T21:37:38;10.10;1.00
17215;DHT22;8723;51.502;6.918;2023-03-24T21:40:06;10.10;1.00
17215;DHT22;8723;51.502;6.918;2023-03-24T21:42:35;10.10;1.00
17215;DHT22;8723;51.502;6.918;2023-03-24T21:45:03;10.00;1.00
17215;DHT22;8723;51.502;6.918;2023-03-24T21:47:30;10.00;1.00
17215;DHT22;8723;51.502;6.918;2023-03-24T21:49:58;10.00;1.00
17215;DHT22;8723;51.502;6.918;2023-03-24T21:52:27;10.00;1.00
17215;DHT22;8723;51.502;6.918;2023-03-24T21:54:54;9.90;1.00
17215;DHT22;8723;51.502;6.918;2023-03-24T21:57:22;9.90;1.00
17215;DHT22;8723;51.502;6.918;2023-03-24T21:59:49;9.90;1.00
17215;DHT22;8723;51.502;6.918;2023-03-24T22:02:18;9.90;1.00
17215;DHT22;8723;51.502;6.918;2023-03-24T22:04:44;9.90;1.00
17215;DHT22;8723;51.502;6.918;2023-03-24T22:07:12;9.90;1.00
17215;DHT22;8723;51.502;6.918;2023-03-24T22:09:41;9.90;1.00
17215;DHT22;8723;51.502;6.918;2023-03-24T22:12:08;9.90;1.00
17215;DHT22;8723;51.502;6.918;2023-03-24T22:14:35;9.90;1.00
17215;DHT22;8723;51.502;6.918;2023-03-24T22:17:02;9.80;1.00
17215;DHT22;8723;51.502;6.918;2023-03-24T22:19:30;9.80;1.00
17215;DHT22;8723;51.502;6.918;2023-03-24T22:21:57;9.90;1.00
17215;DHT22;8723;51.502;6.918;2023-03-24T22:24:27;9.90;1.00
17215;DHT22;8723;51.502;6.918;2023-03-24T22:26:54;9.90;99.90
17215;DHT22;8723;51.502;6.918;2023-03-24T22:29:23;10.00;1.00
17215;DHT22;8723;51.502;6.918;2023-03-24T22:31:50;10.00;99.90
17215;DHT22;8723;51.502;6.918;2023-03-24T22:34:17;10.00;99.90
17215;DHT22;8723;51.502;6.918;2023-03-24T22:36:45;10.00;99.90
17215;DHT22;8723;51.502;6.918;2023-03-24T22:39:12;10.10;99.90
17215;DHT22;8723;51.502;6.918;2023-03-24T22:41:39;10.10;99.90
17215;DHT22;8723;51.502;6.918;2023-03-24T22:44:07;10.10;99.90
17215;DHT22;8723;51.502;6.918;2023-03-24T22:46:34;10.10;99.90
17215;DHT22;8723;51.502;6.918;2023-03-24T22:49:01;10.10;99.90
17215;DHT22;8723;51.502;6.918;2023-03-24T22:51:28;10.10;1.00
17215;DHT22;8723;51.502;6.918;2023-03-24T22:53:57;10.10;1.00
17215;DHT22;8723;51.502;6.918;2023-03-24T22:56:24;10.00;1.00
17215;DHT22;8723;51.502;6.918;2023-03-24T22:58:50;10.00;1.00
17215;DHT22;8723;51.502;6.918;2023-03-24T23:01:17;9.80;99.90
17215;DHT22;8723;51.502;6.918;2023-03-24T23:03:44;9.60;1.00
17215;DHT22;8723;51.502;6.918;2023-03-24T23:06:11;9.50;99.90
17215;DHT22;8723;51.502;6.918;2023-03-24T23:08:40;9.50;99.90
17215;DHT22;8723;51.502;6.918;2023-03-24T23:11:09;9.50;1.00
17215;DHT22;8723;51.502;6.918;2023-03-24T23:13:36;9.50;1.00
17215;DHT22;8723;51.502;6.918;2023-03-24T23:16:04;9.40;1.00
17215;DHT22;8723;51.502;6.918;2023-03-24T23:18:31;9.40;1.00
17215;DHT22;8723;51.502;6.918;2023-03-24T23:21:02;9.50;1.00
17215;DHT22;8723;51.502;6.918;2023-03-24T23:23:31;9.40;1.00
17215;DHT22;8723;51.502;6.918;2023-03-24T23:25:58;9.50;1.00
17215;DHT22;8723;51.502;6.918;2023-03-24T23:28:27;9.50;1.00
17215;DHT22;8723;51.502;6.918;2023-03-24T23:30:53;9.50;99.90
17215;DHT22;8723;51.502;6.918;2023-03-24T23:33:20;9.50;99.90
17215;DHT22;8723;51.502;6.918;2023-03-24T23:35:47;9.60;99.90
17215;DHT22;8723;51.502;6.918;2023-03-24T23:38:14;9.60;81.00
17215;DHT22;8723;51.502;6.918;2023-03-24T23:40:42;9.50;6.60
17215;DHT22;8723;51.502;6.918;2023-03-24T23:43:09;9.50;99.90
17215;DHT22;8723;51.502;6.918;2023-03-24T23:45:37;9.60;1.00
17215;DHT22;8723;51.502;6.918;2023-03-24T23:48:05;9.60;1.00
17215;DHT22;8723;51.502;6.918;2023-03-24T23:50:32;9.60;1.00
17215;DHT22;8723;51.502;6.918;2023-03-24T23:52:59;9.70;1.00
17215;DHT22;8723;51.502;6.918;2023-03-24T23:55:25;9.70;1.00
17215;DHT22;8723;51.502;6.918;2023-03-24T23:57:53;9.70;1.00
